createdAt,value
2019-03-22T00:00:26.571Z,99.90
2019-03-22T00:02:55.921Z,99.90
2019-03-22T00:05:25.218Z,99.90
2019-03-22T00:07:54.804Z,99.90
2019-03-22T00:10:24.203Z,99.90
2019-03-22T00:12:53.797Z,99.90
2019-03-22T00:15:23.069Z,99.90
2019-03-22T00:17:52.438Z,99.90
2019-03-22T00:20:21.772Z,99.90
2019-03-22T00:22:51.059Z,99.90
2019-03-22T00:25:20.675Z,99.90
2019-03-22T00:27:50.665Z,99.90
2019-03-22T00:30:19.982Z,99.90
2019-03-22T00:32:49.341Z,99.90
2019-03-22T00:35:18.846Z,99.90
2019-03-22T00:37:48.226Z,99.90
2019-03-22T00:40:17.858Z,99.90
2019-03-22T00:42:48.202Z,99.90
2019-03-22T00:45:17.773Z,99.90
2019-03-22T00:47:47.046Z,99.90
2019-03-22T00:50:17.002Z,99.90
2019-03-22T00:52:46.369Z,99.90
2019-03-22T00:55:15.996Z,99.90
2019-03-22T00:57:45.616Z,99.90
2019-03-22T01:00:15.102Z,99.90
2019-03-22T01:02:44.593Z,99.90
2019-03-22T01:05:14.303Z,99.90
2019-03-22T01:07:43.751Z,99.90
2019-03-22T01:10:13.542Z,99.90
2019-03-22T01:12:42.920Z,99.90
2019-03-22T01:15:13.247Z,99.90
2019-03-22T01:17:42.567Z,99.90
2019-03-22T01:20:13.343Z,99.90
2019-03-22T01:22:42.932Z,99.90
2019-03-22T01:25:12.639Z,99.90
2019-03-22T01:27:41.981Z,99.90
2019-03-22T01:30:12.671Z,99.90
2019-03-22T01:32:41.936Z,99.90
2019-03-22T01:35:11.727Z,99.90
2019-03-22T01:37:41.333Z,99.90
2019-03-22T01:40:11.277Z,99.90
2019-03-22T01:42:40.639Z,99.90
2019-03-22T01:45:11.739Z,99.90
2019-03-22T01:47:41.399Z,99.90
2019-03-22T01:50:11.998Z,99.90
2019-03-22T01:52:41.342Z,99.90
2019-03-22T01:55:11.624Z,99.90
2019-03-22T01:57:52.239Z,99.90
2019-03-22T02:00:13.845Z,99.90
2019-03-22T02:02:43.445Z,99.90
2019-03-22T02:05:12.786Z,99.90
2019-03-22T02:07:42.082Z,99.90
2019-03-22T02:10:12.397Z,99.90
2019-03-22T02:12:41.990Z,99.90
2019-03-22T02:15:13.522Z,99.90
2019-03-22T02:17:43.150Z,99.90
2019-03-22T02:20:14.722Z,99.90
2019-03-22T02:22:44.080Z,99.90
2019-03-22T02:25:13.759Z,99.90
2019-03-22T02:27:44.140Z,99.90
2019-03-22T02:30:13.931Z,99.90
2019-03-22T02:32:43.346Z,99.90
2019-03-22T02:35:27.433Z,99.90
2019-03-22T02:37:44.343Z,99.90
2019-03-22T02:40:13.984Z,99.90
2019-03-22T02:42:43.514Z,99.90
2019-03-22T02:45:13.283Z,99.90
2019-03-22T02:47:42.689Z,99.90
2019-03-22T02:50:18.555Z,99.90
2019-03-22T02:52:44.102Z,99.90
2019-03-22T02:55:14.445Z,99.90
2019-03-22T02:57:43.837Z,99.90
2019-03-22T03:00:14.952Z,99.90
2019-03-22T03:02:44.286Z,99.90
2019-03-22T03:05:14.190Z,99.90
2019-03-22T03:07:44.507Z,99.90
2019-03-22T03:10:14.313Z,99.90
2019-03-22T03:12:43.682Z,99.90
2019-03-22T03:15:13.096Z,99.90
2019-03-22T03:17:42.713Z,99.90
2019-03-22T03:20:12.924Z,99.90
2019-03-22T03:22:42.343Z,99.90
2019-03-22T03:25:12.118Z,99.90
2019-03-22T03:27:41.646Z,99.90
2019-03-22T03:30:12.767Z,99.90
2019-03-22T03:32:42.048Z,99.90
2019-03-22T03:35:11.896Z,99.90
2019-03-22T03:37:41.506Z,99.90
2019-03-22T03:40:11.163Z,99.90
2019-03-22T03:42:40.467Z,99.90
2019-03-22T03:45:18.265Z,99.90
2019-03-22T03:47:47.585Z,99.90
2019-03-22T03:50:16.931Z,99.90
2019-03-22T03:52:46.568Z,99.90
2019-03-22T03:55:16.376Z,99.90
2019-03-22T03:57:45.968Z,99.90
2019-03-22T04:00:15.966Z,99.90
2019-03-22T04:02:45.259Z,99.90
2019-03-22T04:05:14.933Z,99.90
2019-03-22T04:07:44.361Z,99.90
2019-03-22T04:10:13.819Z,99.90
2019-03-22T04:12:46.162Z,99.90
2019-03-22T04:15:15.531Z,99.90
2019-03-22T04:17:45.067Z,99.90
2019-03-22T04:20:14.481Z,99.90
2019-03-22T04:22:43.814Z,99.90
2019-03-22T04:25:13.284Z,99.90
2019-03-22T04:27:42.858Z,99.90
2019-03-22T04:30:12.410Z,99.90
2019-03-22T04:32:41.778Z,99.90
2019-03-22T04:35:11.332Z,99.90
2019-03-22T04:37:40.629Z,99.90
2019-03-22T04:40:38.096Z,99.90
2019-03-22T04:43:07.689Z,99.90
2019-03-22T04:45:39.014Z,99.90
2019-03-22T04:48:15.102Z,99.90
2019-03-22T04:50:46.616Z,99.90
2019-03-22T04:53:21.653Z,99.90
2019-03-22T04:55:55.982Z,99.90
2019-03-22T04:58:26.721Z,99.90
2019-03-22T05:00:57.977Z,99.90
2019-03-22T05:03:27.740Z,99.90
2019-03-22T05:05:59.478Z,99.90
2019-03-22T05:08:32.127Z,99.90
2019-03-22T05:11:04.308Z,99.90
2019-03-22T05:13:35.262Z,99.90
2019-03-22T05:16:06.692Z,99.90
2019-03-22T05:18:37.322Z,99.90
2019-03-22T05:21:08.418Z,99.90
2019-03-22T05:23:39.282Z,99.90
2019-03-22T05:26:09.722Z,99.90
2019-03-22T05:28:39.246Z,99.90
2019-03-22T05:31:45.802Z,99.90
2019-03-22T05:34:15.096Z,99.90
2019-03-22T05:36:44.618Z,99.90
2019-03-22T05:39:13.926Z,99.90
2019-03-22T05:41:43.491Z,99.90
2019-03-22T05:44:13.088Z,99.90
2019-03-22T05:46:42.401Z,99.90
2019-03-22T05:49:12.231Z,99.90
2019-03-22T05:51:44.172Z,99.90
2019-03-22T05:54:13.455Z,99.90
2019-03-22T05:56:43.022Z,99.90
2019-03-22T05:59:12.421Z,99.90
2019-03-22T06:01:41.845Z,99.90
2019-03-22T06:04:11.122Z,99.90
2019-03-22T06:06:40.666Z,99.90
2019-03-22T06:09:10.518Z,99.90
2019-03-22T06:11:40.115Z,99.90
2019-03-22T06:14:09.903Z,99.90
2019-03-22T06:16:39.206Z,99.90
2019-03-22T06:19:08.514Z,99.90
2019-03-22T06:21:38.046Z,99.90
2019-03-22T06:24:07.389Z,99.90
2019-03-22T06:26:37.706Z,99.90
2019-03-22T06:29:07.225Z,99.90
2019-03-22T06:31:36.557Z,99.90
2019-03-22T06:34:06.295Z,99.90
2019-03-22T06:36:35.609Z,99.90
2019-03-22T06:39:08.003Z,99.90
2019-03-22T06:41:37.855Z,99.90
2019-03-22T06:44:07.439Z,99.90
2019-03-22T06:46:37.349Z,99.90
2019-03-22T06:49:06.894Z,99.90
2019-03-22T06:51:39.295Z,99.90
2019-03-22T06:54:08.661Z,99.90
2019-03-22T06:56:37.979Z,99.90
2019-03-22T06:59:07.814Z,99.90
2019-03-22T07:01:37.114Z,99.90
2019-03-22T07:04:06.430Z,99.90
2019-03-22T07:06:36.047Z,99.90
2019-03-22T07:09:08.701Z,99.90
2019-03-22T07:11:38.192Z,99.90
2019-03-22T07:14:07.799Z,99.90
2019-03-22T07:16:37.469Z,99.90
2019-03-22T07:19:06.850Z,99.90
2019-03-22T07:21:36.211Z,99.90
2019-03-22T07:24:05.764Z,99.90
2019-03-22T07:26:35.350Z,99.90
2019-03-22T07:29:04.660Z,99.90
2019-03-22T07:31:35.893Z,99.90
2019-03-22T07:34:05.127Z,99.90
2019-03-22T07:36:34.423Z,99.90
2019-03-22T07:39:06.037Z,99.90
2019-03-22T07:41:35.363Z,99.90
2019-03-22T07:44:04.718Z,99.90
2019-03-22T07:46:34.266Z,99.90
2019-03-22T07:49:03.653Z,99.90
2019-03-22T07:51:33.228Z,99.90
2019-03-22T07:54:03.688Z,99.90
2019-03-22T07:56:33.244Z,99.90
2019-03-22T07:59:02.514Z,99.90
2019-03-22T08:01:32.084Z,99.90
2019-03-22T08:04:01.413Z,99.90
2019-03-22T08:06:30.952Z,99.90
2019-03-22T08:09:00.775Z,99.90
2019-03-22T08:11:30.110Z,99.90
2019-03-22T08:13:59.482Z,99.90
2019-03-22T08:16:29.386Z,99.90
2019-03-22T08:18:58.721Z,99.90
2019-03-22T08:21:28.665Z,99.90
2019-03-22T08:23:58.454Z,99.90
2019-03-22T08:26:28.261Z,99.90
2019-03-22T08:28:58.035Z,99.90
2019-03-22T08:31:27.604Z,99.90
2019-03-22T08:33:57.774Z,99.90
2019-03-22T08:36:27.105Z,99.50
2019-03-22T08:38:56.814Z,99.50
2019-03-22T08:41:26.635Z,97.30
2019-03-22T08:43:55.944Z,98.40
2019-03-22T08:46:25.274Z,97.50
2019-03-22T08:48:54.875Z,96.90
2019-03-22T08:51:24.430Z,94.90
2019-03-22T08:53:55.374Z,94.20
2019-03-22T08:56:25.062Z,94.00
2019-03-22T08:58:54.869Z,94.10
2019-03-22T09:01:24.299Z,93.50
2019-03-22T09:03:54.824Z,94.40
2019-03-22T09:06:24.224Z,94.00
2019-03-22T09:08:53.811Z,92.20
2019-03-22T09:11:23.172Z,92.60
2019-03-22T09:13:53.741Z,93.50
2019-03-22T09:16:23.477Z,93.70
2019-03-22T09:18:53.079Z,93.20
2019-03-22T09:21:22.371Z,93.00
2019-03-22T09:23:51.751Z,92.80
2019-03-22T09:26:21.685Z,92.90
2019-03-22T09:28:51.163Z,91.90
2019-03-22T09:31:20.535Z,91.80
2019-03-22T09:33:49.930Z,92.80
2019-03-22T09:36:19.510Z,92.00
2019-03-22T09:38:48.828Z,91.90
2019-03-22T09:41:18.119Z,92.70
2019-03-22T09:43:49.084Z,90.70
2019-03-22T09:46:18.480Z,90.50
2019-03-22T09:48:48.103Z,90.60
2019-03-22T09:51:17.806Z,90.60
2019-03-22T09:53:47.621Z,90.90
2019-03-22T09:56:17.340Z,90.90
2019-03-22T09:58:47.571Z,91.30
2019-03-22T10:01:23.727Z,90.40
2019-03-22T10:03:48.718Z,90.90
2019-03-22T10:06:18.139Z,90.30
2019-03-22T10:08:47.513Z,90.30
2019-03-22T10:11:16.964Z,90.20
2019-03-22T10:13:48.336Z,86.80
2019-03-22T10:16:17.831Z,87.60
2019-03-22T10:18:47.114Z,88.20
2019-03-22T10:21:22.474Z,89.00
2019-03-22T10:23:47.983Z,85.20
2019-03-22T10:26:17.393Z,85.90
2019-03-22T10:28:47.216Z,87.40
2019-03-22T10:31:16.533Z,85.50
2019-03-22T10:33:46.207Z,88.90
2019-03-22T10:36:16.278Z,86.60
2019-03-22T10:38:45.689Z,87.80
2019-03-22T10:41:15.087Z,90.30
2019-03-22T10:43:45.351Z,87.80
2019-03-22T10:46:14.668Z,81.90
2019-03-22T10:48:43.999Z,82.80
2019-03-22T10:51:13.658Z,83.10
2019-03-22T10:53:43.748Z,84.10
2019-03-22T10:56:14.448Z,78.00
2019-03-22T10:58:43.967Z,75.90
2019-03-22T11:01:13.376Z,64.70
2019-03-22T11:03:42.850Z,69.80
2019-03-22T11:06:12.251Z,68.40
2019-03-22T11:08:41.778Z,62.80
2019-03-22T11:11:11.335Z,63.70
2019-03-22T11:13:40.708Z,61.90
2019-03-22T11:16:10.012Z,62.00
2019-03-22T11:18:39.891Z,61.00
2019-03-22T11:21:09.221Z,60.80
2019-03-22T11:23:38.788Z,63.30
2019-03-22T11:26:08.473Z,60.10
2019-03-22T11:28:37.790Z,59.30
2019-03-22T11:31:07.663Z,58.10
2019-03-22T11:33:37.196Z,58.00
2019-03-22T11:36:06.608Z,60.00
2019-03-22T11:38:35.910Z,56.10
2019-03-22T11:41:05.316Z,55.90
2019-03-22T11:43:34.635Z,56.80
2019-03-22T11:46:04.334Z,54.50
2019-03-22T11:48:33.869Z,55.80
2019-03-22T11:51:03.583Z,56.20
2019-03-22T11:53:33.967Z,57.30
2019-03-22T11:56:03.469Z,58.40
2019-03-22T11:58:35.255Z,59.70
2019-03-22T12:01:04.663Z,56.30
2019-03-22T12:03:33.990Z,51.80
2019-03-22T12:06:03.426Z,52.00
2019-03-22T12:08:32.807Z,49.40
2019-03-22T12:11:02.468Z,49.10
2019-03-22T12:13:31.861Z,47.40
2019-03-22T12:16:01.456Z,48.10
2019-03-22T12:18:30.784Z,47.20
2019-03-22T12:21:00.159Z,48.10
2019-03-22T12:23:29.955Z,46.10
2019-03-22T12:25:59.543Z,49.50
2019-03-22T12:28:29.119Z,48.20
2019-03-22T12:30:58.482Z,46.20
2019-03-22T12:33:27.960Z,47.70
2019-03-22T12:35:57.230Z,46.60
2019-03-22T12:38:26.529Z,46.80
2019-03-22T12:40:55.866Z,46.40
2019-03-22T12:43:25.465Z,46.20
2019-03-22T12:45:54.761Z,44.30
2019-03-22T12:48:24.080Z,45.20
2019-03-22T12:50:53.356Z,45.20
2019-03-22T12:53:22.778Z,42.60
2019-03-22T12:55:52.325Z,44.20
2019-03-22T12:58:21.653Z,44.40
2019-03-22T13:00:51.529Z,43.80
2019-03-22T13:03:20.886Z,42.90
2019-03-22T13:05:50.335Z,44.20
2019-03-22T13:08:19.970Z,45.60
2019-03-22T13:10:49.587Z,44.40
2019-03-22T13:13:18.885Z,45.70
2019-03-22T13:15:48.346Z,45.10
2019-03-22T13:18:18.091Z,44.20
2019-03-22T13:20:47.397Z,43.30
2019-03-22T13:23:16.762Z,44.30
2019-03-22T13:25:46.406Z,43.50
2019-03-22T13:28:15.713Z,43.20
2019-03-22T13:30:45.289Z,44.00
2019-03-22T13:33:14.614Z,43.70
2019-03-22T13:35:44.036Z,42.70
2019-03-22T13:38:13.562Z,43.00
2019-03-22T13:40:43.454Z,42.10
2019-03-22T13:43:12.774Z,38.90
2019-03-22T13:45:42.321Z,40.10
2019-03-22T13:48:11.656Z,38.50
2019-03-22T13:50:41.039Z,38.90
2019-03-22T13:53:10.678Z,41.00
2019-03-22T13:55:41.651Z,39.10
2019-03-22T13:58:11.510Z,39.50
2019-03-22T14:00:41.061Z,38.30
2019-03-22T14:03:10.442Z,38.90
2019-03-22T14:05:40.027Z,39.10
2019-03-22T14:08:09.581Z,38.20
2019-03-22T14:10:39.168Z,38.40
2019-03-22T14:13:08.721Z,36.40
2019-03-22T14:15:38.275Z,37.00
2019-03-22T14:18:07.724Z,37.50
2019-03-22T14:20:38.298Z,36.00
2019-03-22T14:23:07.702Z,36.40
2019-03-22T14:25:37.350Z,36.20
2019-03-22T14:28:06.756Z,36.30
2019-03-22T14:30:36.278Z,36.20
2019-03-22T14:33:13.303Z,33.40
2019-03-22T14:35:36.844Z,34.20
2019-03-22T14:38:06.437Z,32.30
2019-03-22T14:40:35.833Z,32.90
2019-03-22T14:43:07.372Z,32.30
2019-03-22T14:45:37.017Z,31.80
2019-03-22T14:48:07.131Z,32.00
2019-03-22T14:50:36.925Z,32.10
2019-03-22T14:53:06.589Z,32.80
2019-03-22T14:55:36.039Z,31.90
2019-03-22T14:58:05.786Z,32.30
2019-03-22T15:00:35.166Z,33.10
2019-03-22T15:03:22.488Z,32.80
2019-03-22T15:05:47.198Z,32.20
2019-03-22T15:08:16.934Z,32.00
2019-03-22T15:10:46.787Z,31.90
2019-03-22T15:13:16.687Z,30.80
2019-03-22T15:16:00.170Z,30.30
2019-03-22T15:18:37.578Z,30.00
2019-03-22T15:21:24.511Z,31.30
2019-03-22T15:24:13.169Z,32.30
2019-03-22T15:27:02.289Z,31.70
2019-03-22T15:29:49.422Z,29.70
2019-03-22T15:32:45.406Z,30.00
2019-03-22T15:35:26.722Z,30.30
2019-03-22T15:38:21.339Z,29.50
2019-03-22T15:40:50.758Z,30.30
2019-03-22T15:43:20.289Z,29.40
2019-03-22T15:45:50.228Z,29.60
2019-03-22T15:48:19.865Z,30.10
2019-03-22T15:50:49.403Z,29.20
2019-03-22T15:53:19.017Z,30.10
2019-03-22T15:55:48.583Z,29.80
2019-03-22T15:58:19.358Z,29.40
2019-03-22T16:00:49.061Z,28.60
2019-03-22T16:03:18.478Z,30.30
2019-03-22T16:05:48.053Z,29.20
2019-03-22T16:08:18.110Z,29.20
2019-03-22T16:10:47.681Z,29.00
2019-03-22T16:13:17.354Z,29.30
2019-03-22T16:15:47.076Z,28.40
2019-03-22T16:18:16.663Z,29.10
2019-03-22T16:20:45.978Z,27.80
2019-03-22T16:23:15.292Z,28.10
2019-03-22T16:25:44.734Z,27.60
2019-03-22T16:28:14.078Z,28.40
2019-03-22T16:30:44.282Z,28.10
2019-03-22T16:33:14.149Z,28.60
2019-03-22T16:35:43.519Z,28.80
2019-03-22T16:38:12.818Z,28.60
2019-03-22T16:40:42.453Z,28.40
2019-03-22T16:43:14.275Z,29.00
2019-03-22T16:45:44.444Z,28.80
2019-03-22T16:48:14.086Z,29.10
2019-03-22T16:50:43.792Z,29.50
2019-03-22T16:53:13.150Z,30.30
2019-03-22T16:55:42.558Z,31.30
2019-03-22T16:58:12.104Z,32.80
2019-03-22T17:00:41.491Z,34.30
2019-03-22T17:03:10.920Z,35.10
2019-03-22T17:05:40.306Z,36.90
2019-03-22T17:08:09.592Z,37.10
2019-03-22T17:10:38.899Z,37.20
2019-03-22T17:13:08.198Z,39.20
2019-03-22T17:15:37.728Z,39.30
2019-03-22T17:18:07.077Z,39.80
2019-03-22T17:20:36.390Z,40.30
2019-03-22T17:23:05.868Z,40.80
2019-03-22T17:25:36.831Z,41.40
2019-03-22T17:28:06.222Z,41.70
2019-03-22T17:30:35.768Z,42.60
2019-03-22T17:33:05.445Z,43.10
2019-03-22T17:35:34.744Z,43.60
2019-03-22T17:38:04.185Z,43.80
2019-03-22T17:40:33.763Z,44.90
2019-03-22T17:43:03.067Z,45.00
2019-03-22T17:45:32.461Z,46.20
2019-03-22T17:48:01.977Z,46.10
2019-03-22T17:50:31.353Z,46.70
2019-03-22T17:53:00.642Z,47.10
2019-03-22T17:55:30.299Z,47.60
2019-03-22T17:58:00.392Z,48.70
2019-03-22T18:00:29.709Z,49.90
2019-03-22T18:02:59.081Z,50.00
2019-03-22T18:05:28.396Z,51.10
2019-03-22T18:07:57.795Z,51.50
2019-03-22T18:10:27.109Z,51.50
2019-03-22T18:12:56.603Z,52.90
2019-03-22T18:15:26.446Z,54.10
2019-03-22T18:17:55.760Z,55.10
2019-03-22T18:20:25.254Z,55.50
2019-03-22T18:22:54.839Z,58.00
2019-03-22T18:25:24.619Z,58.90
2019-03-22T18:27:53.938Z,59.60
2019-03-22T18:30:23.317Z,61.90
2019-03-22T18:32:53.148Z,64.10
2019-03-22T18:35:22.732Z,66.50
2019-03-22T18:37:52.195Z,69.10
2019-03-22T18:40:21.642Z,69.20
2019-03-22T18:42:50.934Z,72.00
2019-03-22T18:45:20.262Z,73.60
2019-03-22T18:47:50.598Z,72.90
2019-03-22T18:50:19.904Z,76.10
2019-03-22T18:52:49.444Z,77.70
2019-03-22T18:55:24.506Z,78.20
2019-03-22T18:57:54.178Z,79.50
2019-03-22T19:00:23.478Z,82.20
2019-03-22T19:02:52.797Z,81.60
2019-03-22T19:05:22.172Z,82.60
2019-03-22T19:07:51.576Z,83.00
2019-03-22T19:10:21.442Z,84.30
2019-03-22T19:12:51.079Z,85.20
2019-03-22T19:15:20.614Z,85.00
2019-03-22T19:17:50.019Z,85.00
2019-03-22T19:20:19.725Z,85.80
2019-03-22T19:22:51.075Z,85.70
2019-03-22T19:25:20.778Z,85.80
2019-03-22T19:27:51.482Z,86.00
2019-03-22T19:30:20.887Z,86.80
2019-03-22T19:32:50.491Z,86.20
2019-03-22T19:35:21.172Z,87.80
2019-03-22T19:37:52.770Z,88.80
2019-03-22T19:40:22.372Z,90.00
2019-03-22T19:42:51.733Z,90.40
2019-03-22T19:45:21.205Z,91.20
2019-03-22T19:47:51.138Z,91.90
2019-03-22T19:50:21.123Z,92.50
2019-03-22T19:52:51.101Z,93.30
2019-03-22T19:55:23.561Z,93.70
2019-03-22T19:57:52.961Z,94.30
2019-03-22T20:00:22.680Z,94.60
2019-03-22T20:02:52.682Z,95.00
2019-03-22T20:05:31.662Z,95.40
2019-03-22T20:08:01.023Z,95.60
2019-03-22T20:10:30.821Z,95.60
2019-03-22T20:13:00.476Z,95.70
2019-03-22T20:15:29.853Z,95.90
2019-03-22T20:17:59.764Z,96.00
2019-03-22T20:20:29.410Z,96.20
2019-03-22T20:22:59.482Z,96.30
2019-03-22T20:25:29.032Z,96.40
2019-03-22T20:27:58.423Z,96.80
2019-03-22T20:30:27.754Z,96.70
2019-03-22T20:32:57.388Z,96.50
2019-03-22T20:35:26.976Z,96.60
2019-03-22T20:37:57.369Z,96.70
2019-03-22T20:40:26.767Z,96.80
2019-03-22T20:42:56.133Z,96.70
2019-03-22T20:45:25.773Z,96.80
2019-03-22T20:47:58.173Z,97.10
2019-03-22T20:50:35.700Z,97.20
2019-03-22T20:52:59.282Z,97.20
2019-03-22T20:55:28.928Z,97.30
2019-03-22T20:57:58.317Z,97.50
2019-03-22T21:00:27.878Z,97.60
2019-03-22T21:02:57.410Z,97.60
2019-03-22T21:05:27.465Z,97.70
2019-03-22T21:07:56.918Z,98.00
2019-03-22T21:10:26.445Z,98.20
2019-03-22T21:12:56.079Z,98.30
2019-03-22T21:15:25.915Z,98.30
2019-03-22T21:17:57.830Z,98.20
2019-03-22T21:20:27.122Z,98.40
2019-03-22T21:22:56.565Z,98.50
2019-03-22T21:25:26.013Z,98.50
2019-03-22T21:27:55.707Z,98.70
2019-03-22T21:30:26.170Z,98.60
2019-03-22T21:32:55.834Z,98.80
2019-03-22T21:35:25.451Z,98.90
2019-03-22T21:37:56.049Z,98.90
2019-03-22T21:40:26.052Z,99.00
2019-03-22T21:42:55.329Z,99.20
2019-03-22T21:45:24.664Z,99.10
2019-03-22T21:47:54.647Z,99.20
2019-03-22T21:50:24.234Z,99.30
2019-03-22T21:52:54.056Z,99.30
2019-03-22T21:55:23.755Z,99.20
2019-03-22T21:57:53.283Z,99.40
2019-03-22T22:00:22.876Z,99.30
2019-03-22T22:02:52.194Z,99.20
2019-03-22T22:05:21.481Z,99.10
2019-03-22T22:07:50.790Z,99.30
2019-03-22T22:10:20.518Z,99.40
2019-03-22T22:12:50.090Z,99.40
2019-03-22T22:15:19.398Z,99.50
2019-03-22T22:17:49.197Z,99.50
2019-03-22T22:20:28.413Z,99.40
2019-03-22T22:22:49.903Z,99.50
2019-03-22T22:25:19.230Z,99.50
2019-03-22T22:27:48.754Z,99.60
2019-03-22T22:30:18.143Z,99.70
2019-03-22T22:32:47.861Z,99.80
2019-03-22T22:35:17.503Z,99.90
2019-03-22T22:37:48.181Z,99.90
2019-03-22T22:40:17.559Z,99.90
2019-03-22T22:42:46.826Z,99.90
2019-03-22T22:45:16.722Z,99.90
2019-03-22T22:47:46.320Z,99.90
2019-03-22T22:50:15.703Z,99.90
2019-03-22T22:52:45.145Z,99.90
2019-03-22T22:55:14.753Z,99.90
2019-03-22T22:57:44.370Z,99.90
2019-03-22T23:00:14.931Z,99.90
2019-03-22T23:02:46.762Z,99.90
2019-03-22T23:05:16.177Z,99.90
2019-03-22T23:07:45.850Z,99.90
2019-03-22T23:10:15.576Z,99.90
2019-03-22T23:12:45.015Z,99.90
2019-03-22T23:15:14.797Z,99.90
2019-03-22T23:17:44.093Z,99.90
2019-03-22T23:20:16.874Z,99.90
2019-03-22T23:22:46.221Z,99.90
2019-03-22T23:25:15.519Z,99.90
2019-03-22T23:27:45.288Z,99.90
2019-03-22T23:30:15.003Z,99.90
2019-03-22T23:32:44.291Z,99.90
2019-03-22T23:35:13.806Z,99.90
2019-03-22T23:37:43.457Z,99.90
2019-03-22T23:40:13.083Z,99.90
2019-03-22T23:42:43.224Z,99.90
2019-03-22T23:45:13.255Z,99.90
2019-03-22T23:47:42.786Z,99.90
2019-03-22T23:50:12.163Z,99.90
2019-03-22T23:52:41.462Z,99.90
2019-03-22T23:55:10.876Z,99.90
2019-03-22T23:57:40.179Z,99.90
